createdAt,value
2022-08-12T00:01:03.541Z,9.32
2022-08-12T00:03:50.977Z,9.13
2022-08-12T00:06:38.996Z,6.22
2022-08-12T00:09:26.554Z,7.78
2022-08-12T00:12:13.724Z,5.70
2022-08-12T00:15:01.800Z,10.40
2022-08-12T00:17:48.777Z,6.38
2022-08-12T00:20:35.088Z,7.82
2022-08-12T00:23:21.732Z,5.05
2022-08-12T00:26:23.670Z,7.25
2022-08-12T00:29:13.265Z,6.65
2022-08-12T00:32:01.039Z,5.22
2022-08-12T00:34:48.547Z,8.63
2022-08-12T00:37:36.427Z,9.30
2022-08-12T00:40:26.991Z,12.15
2022-08-12T00:42:54.638Z,8.90
2022-08-12T00:45:22.291Z,7.68
2022-08-12T00:47:51.283Z,6.10
2022-08-12T00:50:20.060Z,6.13
2022-08-12T00:52:51.704Z,7.45
2022-08-12T00:55:19.729Z,3.53
2022-08-12T00:57:52.023Z,6.10
2022-08-12T01:00:21.746Z,9.15
2022-08-12T01:02:52.219Z,4.60
2022-08-12T01:05:39.481Z,7.28
2022-08-12T01:08:28.423Z,5.10
2022-08-12T01:11:15.076Z,7.82
2022-08-12T01:13:47.424Z,4.97
2022-08-12T01:16:16.605Z,6.05
2022-08-12T01:18:45.524Z,5.15
2022-08-12T01:21:16.806Z,4.53
2022-08-12T01:24:29.635Z,8.43
2022-08-12T01:26:52.159Z,7.97
2022-08-12T01:29:22.499Z,5.55
2022-08-12T01:31:51.024Z,5.40
2022-08-12T01:34:28.578Z,7.00
2022-08-12T01:37:05.421Z,5.85
2022-08-12T01:39:34.018Z,5.05
2022-08-12T01:42:07.119Z,5.20
2022-08-12T01:44:35.609Z,7.70
2022-08-12T01:47:09.109Z,3.80
2022-08-12T01:49:36.580Z,8.38
2022-08-12T01:52:19.934Z,10.57
2022-08-12T01:54:50.949Z,6.20
2022-08-12T01:57:58.590Z,7.88
2022-08-12T02:00:14.046Z,8.35
2022-08-12T02:02:41.742Z,8.50
2022-08-12T02:05:33.253Z,8.20
2022-08-12T02:08:38.454Z,7.00
2022-08-12T02:11:23.940Z,7.13
2022-08-12T02:14:11.460Z,6.85
2022-08-12T02:16:59.050Z,5.85
2022-08-12T02:19:41.527Z,7.20
2022-08-12T02:22:12.385Z,8.15
2022-08-12T02:24:41.861Z,9.32
2022-08-12T02:27:10.749Z,8.55
2022-08-12T02:29:38.547Z,5.88
2022-08-12T02:32:06.428Z,7.85
2022-08-12T02:34:34.845Z,6.60
2022-08-12T02:37:03.726Z,7.97
2022-08-12T02:39:34.152Z,6.93
2022-08-12T02:42:03.666Z,5.00
2022-08-12T02:44:32.060Z,8.30
2022-08-12T02:47:02.017Z,7.95
2022-08-12T02:49:35.583Z,6.32
2022-08-12T02:52:03.582Z,7.05
2022-08-12T02:54:31.036Z,7.78
2022-08-12T02:56:59.149Z,8.73
2022-08-12T02:59:28.463Z,9.25
2022-08-12T03:01:57.249Z,9.20
2022-08-12T03:04:30.063Z,9.82
2022-08-12T03:07:10.185Z,7.05
2022-08-12T03:10:03.654Z,7.03
2022-08-12T03:12:34.192Z,13.38
2022-08-12T03:15:04.934Z,11.85
2022-08-12T03:17:35.848Z,13.75
2022-08-12T03:20:10.487Z,10.15
2022-08-12T03:22:42.706Z,12.30
2022-08-12T03:25:16.090Z,8.35
2022-08-12T03:27:51.829Z,9.18
2022-08-12T03:30:20.548Z,8.35
2022-08-12T03:32:49.168Z,26.63
2022-08-12T03:35:41.307Z,11.23
2022-08-12T03:38:12.399Z,9.48
2022-08-12T03:41:13.214Z,13.07
2022-08-12T03:44:07.581Z,10.85
2022-08-12T03:46:56.266Z,19.58
2022-08-12T03:49:42.893Z,74.85
2022-08-12T03:52:29.110Z,43.75
2022-08-12T03:55:15.246Z,33.50
2022-08-12T03:58:01.659Z,13.48
2022-08-12T04:00:29.977Z,12.77
2022-08-12T04:03:07.760Z,14.35
2022-08-12T04:05:55.526Z,18.17
2022-08-12T04:11:09.978Z,9.95
2022-08-12T04:13:37.499Z,12.05
2022-08-12T04:16:07.991Z,9.45
2022-08-12T04:18:35.834Z,13.63
2022-08-12T04:21:03.570Z,11.27
2022-08-12T04:23:31.919Z,13.63
2022-08-12T04:25:59.364Z,25.48
2022-08-12T04:28:28.027Z,11.82
2022-08-12T04:30:57.511Z,12.63
2022-08-12T04:33:27.071Z,9.65
2022-08-12T04:35:54.947Z,9.38
2022-08-12T04:38:23.019Z,7.35
2022-08-12T04:40:51.846Z,7.10
2022-08-12T04:43:59.769Z,8.70
2022-08-12T04:46:07.395Z,8.32
2022-08-12T04:48:34.843Z,10.00
2022-08-12T04:51:03.093Z,8.95
2022-08-12T04:53:31.377Z,13.10
2022-08-12T04:55:58.997Z,9.07
2022-08-12T04:58:29.825Z,8.00
2022-08-12T05:00:57.824Z,8.15
2022-08-12T05:03:26.767Z,11.55
2022-08-12T05:05:56.830Z,9.05
2022-08-12T05:08:25.573Z,7.97
2022-08-12T05:10:53.553Z,8.40
2022-08-12T05:13:21.999Z,8.98
2022-08-12T05:16:04.570Z,13.10
2022-08-12T05:18:39.497Z,11.25
2022-08-12T05:21:08.157Z,8.90
2022-08-12T05:23:37.509Z,12.13
2022-08-12T05:26:06.237Z,7.93
2022-08-12T05:28:33.969Z,10.13
2022-08-12T05:31:02.172Z,15.68
2022-08-12T05:33:37.909Z,26.33
2022-08-12T05:36:09.371Z,15.68
2022-08-12T05:38:56.002Z,11.80
2022-08-12T05:41:24.620Z,33.47
2022-08-12T05:43:53.705Z,11.15
2022-08-12T05:46:22.248Z,11.90
2022-08-12T05:48:52.344Z,14.68
2022-08-12T05:51:19.830Z,12.63
2022-08-12T05:53:48.381Z,16.60
2022-08-12T05:56:19.835Z,14.18
2022-08-12T05:58:48.093Z,26.65
2022-08-12T06:02:11.807Z,13.07
2022-08-12T06:04:03.152Z,5.40
2022-08-12T06:06:39.140Z,25.27
2022-08-12T06:09:10.117Z,7.40
2022-08-12T06:11:38.136Z,5.70
2022-08-12T06:14:12.040Z,3.33
2022-08-12T06:16:39.750Z,12.13
2022-08-12T06:19:08.255Z,6.32
2022-08-12T06:21:37.707Z,11.93
2022-08-12T06:24:08.195Z,7.32
2022-08-12T06:26:35.765Z,20.27
2022-08-12T06:29:03.292Z,9.70
2022-08-12T06:31:30.989Z,9.15
2022-08-12T06:35:22.632Z,7.57
2022-08-12T06:36:46.517Z,5.63
2022-08-12T06:39:15.214Z,15.02
2022-08-12T06:42:32.123Z,6.68
2022-08-12T06:44:50.529Z,6.65
2022-08-12T06:47:19.936Z,9.25
2022-08-12T06:49:49.552Z,7.25
2022-08-12T06:52:17.399Z,5.32
2022-08-12T06:54:45.868Z,5.03
2022-08-12T06:58:01.828Z,4.65
2022-08-12T07:00:00.827Z,6.22
2022-08-12T07:02:28.260Z,5.10
2022-08-12T07:04:55.768Z,5.38
2022-08-12T07:07:23.201Z,6.85
2022-08-12T07:10:06.511Z,4.00
2022-08-12T07:12:36.042Z,4.43
2022-08-12T07:15:03.497Z,5.55
2022-08-12T07:17:37.759Z,4.78
2022-08-12T07:20:29.766Z,4.70
2022-08-12T07:22:57.727Z,3.75
2022-08-12T07:25:40.475Z,5.40
2022-08-12T07:28:16.167Z,4.68
2022-08-12T07:30:45.095Z,8.68
2022-08-12T07:33:13.458Z,10.52
2022-08-12T07:35:45.552Z,5.85
2022-08-12T07:38:29.853Z,4.80
2022-08-12T07:40:57.969Z,7.10
2022-08-12T07:43:26.593Z,5.28
2022-08-12T07:45:54.338Z,5.88
2022-08-12T07:48:23.123Z,7.00
2022-08-12T07:50:52.111Z,6.85
2022-08-12T07:53:19.847Z,5.97
2022-08-12T07:55:47.884Z,10.15
2022-08-12T07:58:15.452Z,5.82
2022-08-12T08:00:43.424Z,8.15
2022-08-12T08:03:13.449Z,6.40
2022-08-12T08:05:46.332Z,6.30
2022-08-12T08:08:14.593Z,7.75
2022-08-12T08:10:42.277Z,11.77
2022-08-12T08:13:11.915Z,6.00
2022-08-12T08:18:28.909Z,7.15
2022-08-12T08:20:57.556Z,4.75
2022-08-12T08:23:46.719Z,3.75
2022-08-12T08:26:24.866Z,5.40
2022-08-12T08:28:53.121Z,4.57
2022-08-12T08:31:21.716Z,3.97
2022-08-12T08:34:09.460Z,5.80
2022-08-12T08:36:36.766Z,4.43
2022-08-12T08:39:04.526Z,7.05
2022-08-12T08:42:15.750Z,5.15
2022-08-12T08:44:39.501Z,5.65
2022-08-12T08:47:07.740Z,9.45
2022-08-12T08:49:38.509Z,4.13
2022-08-12T08:52:07.037Z,13.27
2022-08-12T08:54:34.671Z,8.40
2022-08-12T08:57:02.565Z,4.78
2022-08-12T08:59:30.103Z,4.88
2022-08-12T09:01:57.985Z,5.18
2022-08-12T09:05:12.430Z,5.43
2022-08-12T09:10:02.584Z,4.53
2022-08-12T09:12:54.891Z,4.25
2022-08-12T09:15:34.919Z,4.00
2022-08-12T09:18:08.393Z,8.35
2022-08-12T09:20:38.756Z,9.85
2022-08-12T09:23:57.220Z,5.68
2022-08-12T09:26:03.851Z,8.40
2022-08-12T09:28:33.071Z,4.72
2022-08-12T09:31:00.661Z,5.63
2022-08-12T09:34:27.532Z,8.48
2022-08-12T09:36:30.663Z,3.88
2022-08-12T09:39:02.654Z,3.70
2022-08-12T09:42:39.101Z,5.10
2022-08-12T09:45:18.938Z,6.57
2022-08-12T09:47:56.843Z,3.00
2022-08-12T09:50:27.076Z,4.80
2022-08-12T09:53:16.171Z,4.40
2022-08-12T09:56:01.243Z,4.30
2022-08-12T09:58:58.588Z,4.68
2022-08-12T10:01:24.272Z,2.85
2022-08-12T10:04:03.201Z,6.28
2022-08-12T10:06:36.124Z,6.00
2022-08-12T10:09:08.397Z,7.47
2022-08-12T10:12:12.201Z,9.00
2022-08-12T10:14:50.605Z,4.80
2022-08-12T10:17:23.538Z,5.97
2022-08-12T10:19:52.879Z,7.28
2022-08-12T10:22:39.755Z,6.20
2022-08-12T10:26:35.368Z,6.97
2022-08-12T10:28:50.647Z,9.95
2022-08-12T10:32:19.707Z,7.47
2022-08-12T10:34:26.338Z,8.73
2022-08-12T10:37:22.583Z,7.43
2022-08-12T10:40:07.120Z,10.35
2022-08-12T10:43:00.294Z,9.82
2022-08-12T10:45:31.955Z,5.53
2022-08-12T10:48:07.133Z,5.72
2022-08-12T10:50:58.318Z,5.97
2022-08-12T10:53:45.758Z,3.53
2022-08-12T10:56:18.136Z,4.78
2022-08-12T10:58:47.708Z,5.20
2022-08-12T11:01:50.006Z,7.57
2022-08-12T11:04:22.746Z,6.25
2022-08-12T11:07:10.320Z,5.68
2022-08-12T11:09:56.223Z,6.28
2022-08-12T11:12:55.110Z,4.40
2022-08-12T11:15:20.995Z,4.72
2022-08-12T11:17:55.617Z,3.22
2022-08-12T11:20:29.012Z,4.03
2022-08-12T11:23:03.949Z,4.13
2022-08-12T11:25:56.725Z,3.90
2022-08-12T11:28:33.615Z,4.18
2022-08-12T11:31:02.276Z,4.55
2022-08-12T11:34:04.546Z,3.03
2022-08-12T11:36:17.715Z,2.50
2022-08-12T11:38:50.891Z,3.80
2022-08-12T11:41:20.686Z,2.55
2022-08-12T11:44:27.554Z,8.75
2022-08-12T11:46:51.499Z,5.80
2022-08-12T11:49:32.090Z,6.90
2022-08-12T11:52:01.264Z,4.55
2022-08-12T11:54:29.895Z,3.20
2022-08-12T11:57:00.284Z,2.45
2022-08-12T12:02:20.287Z,7.55
2022-08-12T12:04:52.495Z,5.28
2022-08-12T12:07:22.702Z,8.07
2022-08-12T12:10:01.512Z,5.25
2022-08-12T12:12:28.954Z,4.20
2022-08-12T12:14:58.653Z,3.30
2022-08-12T12:17:38.569Z,3.55
2022-08-12T12:20:11.596Z,5.13
2022-08-12T12:22:41.070Z,2.63
2022-08-12T12:25:13.682Z,2.67
2022-08-12T12:28:04.408Z,2.67
2022-08-12T12:30:33.126Z,8.68
2022-08-12T12:33:00.647Z,2.10
2022-08-12T12:36:17.042Z,3.88
2022-08-12T12:38:17.527Z,3.58
2022-08-12T12:40:45.836Z,10.95
2022-08-12T12:43:28.384Z,4.15
2022-08-12T12:45:57.156Z,5.63
2022-08-12T12:48:24.808Z,4.18
2022-08-12T12:51:13.085Z,5.53
2022-08-12T12:54:06.891Z,2.78
2022-08-12T12:56:34.156Z,3.05
2022-08-12T12:59:03.882Z,2.80
2022-08-12T13:01:36.321Z,2.80
2022-08-12T13:04:12.291Z,5.93
2022-08-12T13:06:42.145Z,2.63
2022-08-12T13:09:13.295Z,3.58
2022-08-12T13:11:44.351Z,4.28
2022-08-12T13:14:28.775Z,9.75
2022-08-12T13:17:03.288Z,3.92
2022-08-12T13:19:38.582Z,6.97
2022-08-12T13:22:20.298Z,6.93
2022-08-12T13:24:54.815Z,9.88
2022-08-12T13:27:35.812Z,3.85
2022-08-12T13:30:10.714Z,3.13
2022-08-12T13:32:43.663Z,3.28
2022-08-12T13:36:02.993Z,3.22
2022-08-12T13:38:12.492Z,3.83
2022-08-12T13:40:40.572Z,4.43
2022-08-12T13:43:08.332Z,11.45
2022-08-12T13:45:41.042Z,5.28
2022-08-12T13:48:08.772Z,5.28
2022-08-12T13:50:40.427Z,6.25
2022-08-12T13:53:23.779Z,4.05
2022-08-12T13:55:59.710Z,2.47
2022-08-12T13:58:30.103Z,5.30
2022-08-12T14:00:58.730Z,4.72
2022-08-12T14:03:28.363Z,5.10
2022-08-12T14:06:15.595Z,6.93
2022-08-12T14:08:43.778Z,7.88
2022-08-12T14:11:13.164Z,7.38
2022-08-12T14:14:06.382Z,5.28
2022-08-12T14:16:46.782Z,6.78
2022-08-12T14:19:23.348Z,3.47
2022-08-12T14:22:00.610Z,15.32
2022-08-12T14:24:40.277Z,6.72
2022-08-12T14:27:10.408Z,9.05
2022-08-12T14:30:04.539Z,6.30
2022-08-12T14:32:37.052Z,3.25
2022-08-12T14:35:09.629Z,8.55
2022-08-12T14:37:56.682Z,3.75
2022-08-12T14:40:30.136Z,5.25
2022-08-12T14:43:02.311Z,6.30
2022-08-12T14:45:45.091Z,3.53
2022-08-12T14:48:23.989Z,3.28
2022-08-12T14:52:10.492Z,5.88
2022-08-12T14:59:57.637Z,4.65
2022-08-12T15:02:23.465Z,8.55
2022-08-12T15:04:59.053Z,4.72
2022-08-12T15:07:33.449Z,3.10
2022-08-12T15:12:41.032Z,4.20
2022-08-12T15:15:10.496Z,2.83
2022-08-12T15:17:39.137Z,5.18
2022-08-12T15:20:11.419Z,4.30
2022-08-12T15:22:57.897Z,5.18
2022-08-12T15:25:25.908Z,6.32
2022-08-12T15:28:04.457Z,6.97
2022-08-12T15:30:34.125Z,5.75
2022-08-12T15:33:12.410Z,6.80
2022-08-12T15:35:52.819Z,7.30
2022-08-12T15:38:22.121Z,7.03
2022-08-12T15:40:52.982Z,4.05
2022-08-12T15:43:51.084Z,4.45
2022-08-12T15:46:15.728Z,5.78
2022-08-12T15:48:47.455Z,5.85
2022-08-12T15:51:58.426Z,4.50
2022-08-12T15:54:33.522Z,10.55
2022-08-12T15:57:06.034Z,8.40
2022-08-12T15:59:51.510Z,7.10
2022-08-12T16:02:26.667Z,7.80
2022-08-12T16:04:55.047Z,12.00
2022-08-12T16:07:30.151Z,8.02
2022-08-12T16:10:05.680Z,10.38
2022-08-12T16:12:39.594Z,7.25
2022-08-12T16:15:08.385Z,5.57
2022-08-12T16:18:14.897Z,4.63
2022-08-12T16:20:33.178Z,4.90
2022-08-12T16:23:04.335Z,6.40
2022-08-12T16:26:03.374Z,4.25
2022-08-12T16:28:34.217Z,3.95
2022-08-12T16:31:02.170Z,4.65
2022-08-12T16:33:35.754Z,3.63
2022-08-12T16:36:25.079Z,5.68
2022-08-12T16:38:52.700Z,5.05
2022-08-12T16:41:20.171Z,3.60
2022-08-12T16:43:48.333Z,5.15
2022-08-12T16:46:32.301Z,4.10
2022-08-12T16:49:08.886Z,6.55
2022-08-12T16:51:46.130Z,24.63
2022-08-12T16:54:16.489Z,8.57
2022-08-12T16:56:55.578Z,6.22
2022-08-12T16:59:30.804Z,7.20
2022-08-12T17:02:31.659Z,4.25
2022-08-12T17:05:03.563Z,6.40
2022-08-12T17:07:36.204Z,8.65
2022-08-12T17:10:08.689Z,4.60
2022-08-12T17:12:37.634Z,6.72
2022-08-12T17:15:41.322Z,7.75
2022-08-12T17:18:38.973Z,8.00
2022-08-12T17:20:46.501Z,21.45
2022-08-12T17:23:19.465Z,13.05
2022-08-12T17:25:52.918Z,6.43
2022-08-12T17:28:22.545Z,11.13
2022-08-12T17:30:57.287Z,8.80
2022-08-12T17:33:33.746Z,27.38
2022-08-12T17:36:03.193Z,19.67
2022-08-12T17:38:30.824Z,27.17
2022-08-12T17:40:58.312Z,11.15
2022-08-12T17:43:56.464Z,18.02
2022-08-12T17:46:24.080Z,17.88
2022-08-12T17:49:01.160Z,22.50
2022-08-12T17:51:50.259Z,12.07
2022-08-12T17:54:18.762Z,19.60
2022-08-12T17:56:47.272Z,18.15
2022-08-12T17:59:48.189Z,68.50
2022-08-12T18:02:10.015Z,17.38
2022-08-12T18:05:05.337Z,28.55
2022-08-12T18:07:30.972Z,36.53
2022-08-12T18:10:03.402Z,32.22
2022-08-12T18:12:38.616Z,55.75
2022-08-12T18:15:26.953Z,58.75
2022-08-12T18:18:00.984Z,59.60
2022-08-12T18:20:28.821Z,77.53
2022-08-12T18:22:58.669Z,78.90
2022-08-12T18:26:16.138Z,89.68
2022-08-12T18:28:36.778Z,40.55
2022-08-12T18:31:04.575Z,121.25
2022-08-12T18:33:41.767Z,28.25
2022-08-12T18:36:13.941Z,21.08
2022-08-12T18:38:44.893Z,18.90
2022-08-12T18:41:33.560Z,21.35
2022-08-12T18:44:10.003Z,18.15
2022-08-12T18:46:54.493Z,36.15
2022-08-12T18:49:38.646Z,35.80
2022-08-12T18:52:08.216Z,45.13
2022-08-12T18:54:41.501Z,27.77
2022-08-12T18:58:07.736Z,27.90
2022-08-12T19:00:20.999Z,18.63
2022-08-12T19:02:50.661Z,38.08
2022-08-12T19:05:18.222Z,19.58
2022-08-12T19:07:58.193Z,19.48
2022-08-12T19:10:28.589Z,18.92
2022-08-12T19:13:23.704Z,11.60
2022-08-12T19:15:57.594Z,11.63
2022-08-12T19:18:29.582Z,14.87
2022-08-12T19:20:58.900Z,9.80
2022-08-12T19:23:35.001Z,11.75
2022-08-12T19:26:04.574Z,10.27
2022-08-12T19:28:36.452Z,16.75
2022-08-12T19:31:45.351Z,13.00
2022-08-12T19:37:20.463Z,10.70
2022-08-12T19:40:08.135Z,12.23
2022-08-12T19:42:42.718Z,12.43
2022-08-12T19:45:15.703Z,13.30
2022-08-12T19:47:44.970Z,11.82
2022-08-12T19:50:19.868Z,11.77
2022-08-12T19:52:51.398Z,11.70
2022-08-12T19:55:23.215Z,10.85
2022-08-12T19:58:01.427Z,13.02
2022-08-12T20:00:31.640Z,13.20
2022-08-12T20:03:00.799Z,15.35
2022-08-12T20:06:05.843Z,16.90
2022-08-12T20:08:32.849Z,15.80
2022-08-12T20:12:12.791Z,16.07
2022-08-12T20:14:01.285Z,16.85
2022-08-12T20:16:52.608Z,15.85
2022-08-12T20:19:17.980Z,14.10
2022-08-12T20:21:45.670Z,14.20
2022-08-12T20:24:14.434Z,16.02
2022-08-12T20:26:43.133Z,14.70
2022-08-12T20:29:11.719Z,12.68
2022-08-12T20:31:40.299Z,14.75
2022-08-12T20:34:09.356Z,15.63
2022-08-12T20:36:44.418Z,14.48
2022-08-12T20:39:34.104Z,13.52
2022-08-12T20:42:07.498Z,15.63
2022-08-12T20:44:40.510Z,13.35
2022-08-12T20:47:18.074Z,11.95
2022-08-12T20:49:55.403Z,14.70
2022-08-12T20:52:29.086Z,11.63
2022-08-12T20:54:58.251Z,13.00
2022-08-12T20:57:38.177Z,11.25
2022-08-12T21:00:28.357Z,10.98
2022-08-12T21:03:16.099Z,15.15
2022-08-12T21:06:11.724Z,12.98
2022-08-12T21:08:40.645Z,13.68
2022-08-12T21:11:09.667Z,14.27
2022-08-12T21:13:41.981Z,12.07
2022-08-12T21:16:10.421Z,9.85
2022-08-12T21:18:38.365Z,10.65
2022-08-12T21:21:22.798Z,14.45
2022-08-12T21:23:52.368Z,11.75
2022-08-12T21:26:24.324Z,15.38
2022-08-12T21:29:01.283Z,11.10
2022-08-12T21:32:46.966Z,10.73
2022-08-12T21:34:19.633Z,13.02
2022-08-12T21:36:49.470Z,11.85
2022-08-12T21:39:27.919Z,11.93
2022-08-12T21:42:06.511Z,11.57
2022-08-12T21:45:48.177Z,12.15
2022-08-12T21:47:22.865Z,11.40
2022-08-12T21:50:04.253Z,14.70
2022-08-12T21:52:49.246Z,15.00
2022-08-12T21:55:20.217Z,13.55
2022-08-12T21:57:54.555Z,10.63
2022-08-12T22:00:35.153Z,13.35
2022-08-12T22:06:26.304Z,11.90
2022-08-12T22:09:03.870Z,12.00
2022-08-12T22:11:42.246Z,10.68
2022-08-12T22:14:21.404Z,13.18
2022-08-12T22:16:50.305Z,12.07
2022-08-12T22:19:19.744Z,12.18
2022-08-12T22:21:53.266Z,13.43
2022-08-12T22:24:26.830Z,13.20
2022-08-12T22:26:57.132Z,13.38
2022-08-12T22:29:53.665Z,13.82
2022-08-12T22:32:21.534Z,15.35
2022-08-12T22:35:22.020Z,14.48
2022-08-12T22:37:53.670Z,13.13
2022-08-12T22:40:23.747Z,12.35
2022-08-12T22:43:14.574Z,13.18
2022-08-12T22:46:02.457Z,12.45
2022-08-12T22:48:30.736Z,15.00
2022-08-12T22:50:59.228Z,12.60
2022-08-12T22:53:35.835Z,13.55
2022-08-12T22:56:06.053Z,12.32
2022-08-12T22:58:40.430Z,11.48
2022-08-12T23:01:11.010Z,12.82
2022-08-12T23:03:48.647Z,12.63
2022-08-12T23:06:23.852Z,13.20
2022-08-12T23:08:55.668Z,11.50
2022-08-12T23:11:25.545Z,13.38
2022-08-12T23:14:04.335Z,14.88
2022-08-12T23:16:34.201Z,14.50
2022-08-12T23:19:10.729Z,10.95
2022-08-12T23:22:03.969Z,13.40
2022-08-12T23:24:53.664Z,11.43
2022-08-12T23:27:44.476Z,13.63
2022-08-12T23:30:24.615Z,13.75
2022-08-12T23:32:54.445Z,12.80
2022-08-12T23:35:45.642Z,13.82
2022-08-12T23:38:30.389Z,16.13
2022-08-12T23:41:00.705Z,16.80
2022-08-12T23:43:40.046Z,12.30
2022-08-12T23:46:19.516Z,14.05
2022-08-12T23:48:50.420Z,12.55
2022-08-12T23:51:23.040Z,12.05
2022-08-12T23:53:54.972Z,11.10
2022-08-12T23:56:23.855Z,12.52
2022-08-12T23:58:52.978Z,11.95
